< < Back
Terminal Aerodrome Forecast


Current Version              Previous Versions:   1  2  3  4  5  6  7  8  9  

Terminal Aerodrome Forecast

705
FTUS42 KGSP 260535
TAFAND
TAF
KAND 260535Z 2606/2706 00000KT P6SM FEW070 BKN250
     FM261600 24006KT P6SM SCT060 BKN250
     FM262100 22006KT P6SM BKN060 PROB30 2621/2701 4SM -TSRA
      BKN060CB
     FM270200 19003KT P6SM BKN060=

Latest METAR

307
SAUS70 KWBC 262000
MTRAND
METAR KAND 261956Z AUTO 10SM FEW049 30/16 A3012 RMK AO2 SLP191
T03000161


USA.gov is the U.S. government's official web portal to all federal, state and local government web resources and services.